sensor_id;sensor_type;location;lat;lon;timestamp;pressure;altitude;pressure_sealevel;temperature;humidity
14242;BME280;7205;50.864;12.766;2023-04-02T00:00:14;96719.84;;;9.27;96.38
14242;BME280;7205;50.864;12.766;2023-04-02T00:02:58;96714.34;;;9.22;96.58
14242;BME280;7205;50.864;12.766;2023-04-02T00:05:28;96719.53;;;9.15;96.77
14242;BME280;7205;50.864;12.766;2023-04-02T00:07:58;96719.47;;;9.09;96.81
14242;BME280;7205;50.864;12.766;2023-04-02T00:10:29;96738.28;;;9.06;96.89
14242;BME280;7205;50.864;12.766;2023-04-02T00:13:05;96732.78;;;9.01;96.75
14242;BME280;7205;50.864;12.766;2023-04-02T00:15:45;96737.53;;;8.91;96.84
14242;BME280;7205;50.864;12.766;2023-04-02T00:18:14;96746.53;;;8.81;96.84
14242;BME280;7205;50.864;12.766;2023-04-02T00:20:45;96744.84;;;8.74;97.12
14242;BME280;7205;50.864;12.766;2023-04-02T00:23:13;96754.09;;;8.70;97.90
14242;BME280;7205;50.864;12.766;2023-04-02T00:25:43;96762.38;;;8.67;97.85
14242;BME280;7205;50.864;12.766;2023-04-02T00:28:12;96760.28;;;8.62;97.77
14242;BME280;7205;50.864;12.766;2023-04-02T00:30:46;96780.06;;;8.58;97.79
14242;BME280;7205;50.864;12.766;2023-04-02T00:33:17;96776.16;;;8.54;97.75
14242;BME280;7205;50.864;12.766;2023-04-02T00:35:47;96775.72;;;8.51;98.10
14242;BME280;7205;50.864;12.766;2023-04-02T00:38:19;96780.53;;;8.47;98.10
14242;BME280;7205;50.864;12.766;2023-04-02T00:40:50;96782.88;;;8.42;98.35
14242;BME280;7205;50.864;12.766;2023-04-02T00:43:18;96794.78;;;8.38;98.04
14242;BME280;7205;50.864;12.766;2023-04-02T00:45:53;96793.69;;;8.33;98.38
14242;BME280;7205;50.864;12.766;2023-04-02T00:48:36;96798.03;;;8.26;97.73
14242;BME280;7205;50.864;12.766;2023-04-02T00:51:13;96793.84;;;8.17;98.01
14242;BME280;7205;50.864;12.766;2023-04-02T00:53:43;96794.38;;;8.12;98.00
14242;BME280;7205;50.864;12.766;2023-04-02T00:56:16;96801.84;;;8.09;98.25
14242;BME280;7205;50.864;12.766;2023-04-02T00:58:49;96814.72;;;8.04;98.34
14242;BME280;7205;50.864;12.766;2023-04-02T01:01:20;96807.97;;;8.01;98.66
14242;BME280;7205;50.864;12.766;2023-04-02T01:03:54;96816.03;;;8.00;98.84
14242;BME280;7205;50.864;12.766;2023-04-02T01:06:25;96822.66;;;7.96;98.36
14242;BME280;7205;50.864;12.766;2023-04-02T01:09:05;96829.16;;;7.85;98.15
14242;BME280;7205;50.864;12.766;2023-04-02T01:11:47;96827.59;;;7.76;98.01
14242;BME280;7205;50.864;12.766;2023-04-02T01:14:26;96819.78;;;7.68;98.44
14242;BME280;7205;50.864;12.766;2023-04-02T01:17:11;96842.78;;;7.66;98.92
14242;BME280;7205;50.864;12.766;2023-04-02T01:20:11;96830.69;;;7.57;98.53
14242;BME280;7205;50.864;12.766;2023-04-02T01:22:50;96841.75;;;7.52;99.05
14242;BME280;7205;50.864;12.766;2023-04-02T01:25:23;96837.50;;;7.51;99.51
14242;BME280;7205;50.864;12.766;2023-04-02T01:27:59;96850.63;;;7.51;99.65
14242;BME280;7205;50.864;12.766;2023-04-02T01:30:32;96855.22;;;7.49;99.65
14242;BME280;7205;50.864;12.766;2023-04-02T01:33:00;96851.13;;;7.47;99.86
14242;BME280;7205;50.864;12.766;2023-04-02T01:35:31;96851.31;;;7.45;100.00
14242;BME280;7205;50.864;12.766;2023-04-02T01:38:05;96857.56;;;7.44;100.00
14242;BME280;7205;50.864;12.766;2023-04-02T01:40:37;96868.06;;;7.44;100.00
14242;BME280;7205;50.864;12.766;2023-04-02T01:43:15;96876.78;;;7.45;100.00
14242;BME280;7205;50.864;12.766;2023-04-02T01:45:45;96881.22;;;7.44;100.00
14242;BME280;7205;50.864;12.766;2023-04-02T01:48:14;96881.22;;;7.44;100.00
14242;BME280;7205;50.864;12.766;2023-04-02T01:50:43;96890.06;;;7.43;100.00
14242;BME280;7205;50.864;12.766;2023-04-02T01:53:13;96890.06;;;7.43;100.00
14242;BME280;7205;50.864;12.766;2023-04-02T01:55:42;96893.69;;;7.42;100.00
14242;BME280;7205;50.864;12.766;2023-04-02T01:58:11;96895.31;;;7.43;100.00
14242;BME280;7205;50.864;12.766;2023-04-02T02:00:46;96901.56;;;7.42;100.00
14242;BME280;7205;50.864;12.766;2023-04-02T02:03:18;96906.81;;;7.42;100.00
14242;BME280;7205;50.864;12.766;2023-04-02T02:05:46;96908.78;;;7.40;100.00
14242;BME280;7205;50.864;12.766;2023-04-02T02:08:23;96906.81;;;7.42;100.00
14242;BME280;7205;50.864;12.766;2023-04-02T02:10:51;96908.63;;;7.42;100.00
14242;BME280;7205;50.864;12.766;2023-04-02T02:13:19;96919.13;;;7.42;100.00
14242;BME280;7205;50.864;12.766;2023-04-02T02:15:48;96921.28;;;7.38;100.00
14242;BME280;7205;50.864;12.766;2023-04-02T02:18:18;96920.00;;;7.34;100.00
14242;BME280;7205;50.864;12.766;2023-04-02T02:20:48;96926.41;;;7.32;100.00
14242;BME280;7205;50.864;12.766;2023-04-02T02:23:17;96932.81;;;7.29;100.00
14242;BME280;7205;50.864;12.766;2023-04-02T02:25:45;96933.19;;;7.26;100.00
14242;BME280;7205;50.864;12.766;2023-04-02T02:28:16;96947.44;;;7.24;100.00
14242;BME280;7205;50.864;12.766;2023-04-02T02:30:46;96940.09;;;7.19;100.00
14242;BME280;7205;50.864;12.766;2023-04-02T02:33:20;96944.69;;;7.17;100.00
14242;BME280;7205;50.864;12.766;2023-04-02T02:35:55;96951.25;;;7.13;100.00
14242;BME280;7205;50.864;12.766;2023-04-02T02:38:42;96954.25;;;7.10;100.00
14242;BME280;7205;50.864;12.766;2023-04-02T02:41:23;96968.53;;;7.08;100.00
14242;BME280;7205;50.864;12.766;2023-04-02T02:43:57;96980.34;;;7.04;100.00
14242;BME280;7205;50.864;12.766;2023-04-02T02:46:28;96972.00;;;7.00;100.00
14242;BME280;7205;50.864;12.766;2023-04-02T02:48:58;96975.97;;;6.96;100.00
14242;BME280;7205;50.864;12.766;2023-04-02T02:51:38;96985.81;;;6.94;100.00
14242;BME280;7205;50.864;12.766;2023-04-02T02:54:07;96993.00;;;6.92;100.00
14242;BME280;7205;50.864;12.766;2023-04-02T02:56:39;96999.25;;;6.91;99.71
14242;BME280;7205;50.864;12.766;2023-04-02T02:59:09;96997.13;;;6.87;99.89
14242;BME280;7205;50.864;12.766;2023-04-02T03:01:40;97000.44;;;6.81;99.83
14242;BME280;7205;50.864;12.766;2023-04-02T03:04:09;97009.94;;;6.74;99.59
14242;BME280;7205;50.864;12.766;2023-04-02T03:06:37;97004.72;;;6.66;99.28
14242;BME280;7205;50.864;12.766;2023-04-02T03:09:13;97010.63;;;6.60;99.62
14242;BME280;7205;50.864;12.766;2023-04-02T03:11:48;97019.81;;;6.56;99.59
14242;BME280;7205;50.864;12.766;2023-04-02T03:14:23;97033.25;;;6.53;100.00
14242;BME280;7205;50.864;12.766;2023-04-02T03:16:59;97025.41;;;6.53;100.00
14242;BME280;7205;50.864;12.766;2023-04-02T03:19:36;97043.91;;;6.51;100.00
14242;BME280;7205;50.864;12.766;2023-04-02T03:22:09;97043.41;;;6.48;99.99
14242;BME280;7205;50.864;12.766;2023-04-02T03:24:45;97038.50;;;6.45;99.90
14242;BME280;7205;50.864;12.766;2023-04-02T03:27:17;97049.13;;;6.43;100.00
14242;BME280;7205;50.864;12.766;2023-04-02T03:29:57;97057.34;;;6.40;100.00
14242;BME280;7205;50.864;12.766;2023-04-02T03:32:29;97050.47;;;6.39;100.00
14242;BME280;7205;50.864;12.766;2023-04-02T03:35:02;97058.50;;;6.38;99.94
14242;BME280;7205;50.864;12.766;2023-04-02T03:37:37;97059.63;;;6.35;100.00
14242;BME280;7205;50.864;12.766;2023-04-02T03:40:13;97069.78;;;6.30;100.00
14242;BME280;7205;50.864;12.766;2023-04-02T03:42:48;97076.69;;;6.31;99.98
14242;BME280;7205;50.864;12.766;2023-04-02T03:45:20;97078.66;;;6.29;100.00
14242;BME280;7205;50.864;12.766;2023-04-02T03:47:52;97087.16;;;6.31;100.00
14242;BME280;7205;50.864;12.766;2023-04-02T03:50:30;97093.88;;;6.33;100.00
14242;BME280;7205;50.864;12.766;2023-04-02T03:53:00;97093.22;;;6.31;100.00
14242;BME280;7205;50.864;12.766;2023-04-02T03:55:29;97093.53;;;6.28;100.00
14242;BME280;7205;50.864;12.766;2023-04-02T03:58:02;97100.25;;;6.23;100.00
14242;BME280;7205;50.864;12.766;2023-04-02T04:00:36;97115.84;;;6.24;100.00
14242;BME280;7205;50.864;12.766;2023-04-02T04:03:10;97117.28;;;6.27;100.00
14242;BME280;7205;50.864;12.766;2023-04-02T04:05:47;97126.00;;;6.27;100.00
14242;BME280;7205;50.864;12.766;2023-04-02T04:08:17;97128.28;;;6.30;100.00
14242;BME280;7205;50.864;12.766;2023-04-02T04:10:44;97140.56;;;6.30;100.00
14242;BME280;7205;50.864;12.766;2023-04-02T04:13:19;97136.81;;;6.24;100.00
14242;BME280;7205;50.864;12.766;2023-04-02T04:15:52;97138.09;;;6.20;100.00
14242;BME280;7205;50.864;12.766;2023-04-02T04:18:30;97146.28;;;6.17;100.00
14242;BME280;7205;50.864;12.766;2023-04-02T04:21:15;97151.03;;;6.14;100.00
14242;BME280;7205;50.864;12.766;2023-04-02T04:24:01;97163.28;;;6.13;100.00
14242;BME280;7205;50.864;12.766;2023-04-02T04:26:35;97173.94;;;6.12;100.00
14242;BME280;7205;50.864;12.766;2023-04-02T04:29:13;97181.81;;;6.12;100.00
14242;BME280;7205;50.864;12.766;2023-04-02T04:31:46;97177.22;;;6.06;100.00
14242;BME280;7205;50.864;12.766;2023-04-02T04:34:19;97196.00;;;6.01;100.00
14242;BME280;7205;50.864;12.766;2023-04-02T04:36:51;97194.38;;;6.00;100.00
14242;BME280;7205;50.864;12.766;2023-04-02T04:39:32;97205.00;;;5.99;100.00
14242;BME280;7205;50.864;12.766;2023-04-02T04:42:04;97219.75;;;6.00;100.00
14242;BME280;7205;50.864;12.766;2023-04-02T04:44:39;97217.44;;;5.97;100.00
14242;BME280;7205;50.864;12.766;2023-04-02T04:47:12;97223.00;;;5.94;100.00
14242;BME280;7205;50.864;12.766;2023-04-02T04:49:43;97223.78;;;5.86;100.00
14242;BME280;7205;50.864;12.766;2023-04-02T04:52:18;97236.88;;;5.86;100.00
14242;BME280;7205;50.864;12.766;2023-04-02T04:54:47;97236.22;;;5.84;100.00
14242;BME280;7205;50.864;12.766;2023-04-02T04:57:30;97244.88;;;5.85;100.00
14242;BME280;7205;50.864;12.766;2023-04-02T05:00:04;97250.13;;;5.85;100.00
14242;BME280;7205;50.864;12.766;2023-04-02T05:02:44;97262.09;;;5.87;100.00
14242;BME280;7205;50.864;12.766;2023-04-02T05:05:18;97257.97;;;5.85;100.00
14242;BME280;7205;50.864;12.766;2023-04-02T05:07:50;97277.97;;;5.86;100.00
14242;BME280;7205;50.864;12.766;2023-04-02T05:10:23;97273.84;;;5.83;100.00
14242;BME280;7205;50.864;12.766;2023-04-02T05:12:58;97289.84;;;5.80;100.00
14242;BME280;7205;50.864;12.766;2023-04-02T05:15:31;97273.94;;;5.74;100.00
14242;BME280;7205;50.864;12.766;2023-04-02T05:18:20;97282.28;;;5.69;100.00
14242;BME280;7205;50.864;12.766;2023-04-02T05:20:51;97300.38;;;5.63;100.00
14242;BME280;7205;50.864;12.766;2023-04-02T05:23:25;97308.00;;;5.56;99.89
14242;BME280;7205;50.864;12.766;2023-04-02T05:25:59;97318.59;;;5.47;99.71
14242;BME280;7205;50.864;12.766;2023-04-02T05:28:32;97310.34;;;5.42;99.63
14242;BME280;7205;50.864;12.766;2023-04-02T05:31:02;97308.72;;;5.41;99.96
14242;BME280;7205;50.864;12.766;2023-04-02T05:33:33;97318.38;;;5.40;100.00
14242;BME280;7205;50.864;12.766;2023-04-02T05:36:07;97332.94;;;5.43;100.00
14242;BME280;7205;50.864;12.766;2023-04-02T05:38:45;97331.81;;;5.45;100.00
14242;BME280;7205;50.864;12.766;2023-04-02T05:41:23;97336.53;;;5.42;100.00
14242;BME280;7205;50.864;12.766;2023-04-02T05:44:00;97333.25;;;5.40;100.00
14242;BME280;7205;50.864;12.766;2023-04-02T05:46:33;97340.28;;;5.39;99.91
14242;BME280;7205;50.864;12.766;2023-04-02T05:49:03;97352.56;;;5.39;100.00
14242;BME280;7205;50.864;12.766;2023-04-02T05:51:37;97358.91;;;5.36;99.38
14242;BME280;7205;50.864;12.766;2023-04-02T05:54:16;97357.56;;;5.32;99.30
14242;BME280;7205;50.864;12.766;2023-04-02T05:56:51;97368.75;;;5.25;98.82
14242;BME280;7205;50.864;12.766;2023-04-02T05:59:22;97370.06;;;5.21;98.74
14242;BME280;7205;50.864;12.766;2023-04-02T06:01:56;97367.06;;;5.16;99.04
14242;BME280;7205;50.864;12.766;2023-04-02T06:04:35;97380.13;;;5.16;99.00
14242;BME280;7205;50.864;12.766;2023-04-02T06:07:07;97379.31;;;5.15;99.30
14242;BME280;7205;50.864;12.766;2023-04-02T06:09:44;97382.91;;;5.14;99.15
14242;BME280;7205;50.864;12.766;2023-04-02T06:12:18;97392.69;;;5.12;99.09
14242;BME280;7205;50.864;12.766;2023-04-02T06:14:48;97396.25;;;5.11;99.37
14242;BME280;7205;50.864;12.766;2023-04-02T06:17:18;97410.72;;;5.15;99.93
14242;BME280;7205;50.864;12.766;2023-04-02T06:19:46;97412.88;;;5.20;100.00
14242;BME280;7205;50.864;12.766;2023-04-02T06:22:22;97421.56;;;5.20;99.38
14242;BME280;7205;50.864;12.766;2023-04-02T06:24:59;97422.81;;;5.16;99.22
14242;BME280;7205;50.864;12.766;2023-04-02T06:27:33;97430.81;;;5.14;98.72
14242;BME280;7205;50.864;12.766;2023-04-02T06:30:04;97431.56;;;5.07;98.67
14242;BME280;7205;50.864;12.766;2023-04-02T06:32:32;97434.97;;;5.07;99.37
14242;BME280;7205;50.864;12.766;2023-04-02T06:35:00;97442.69;;;5.09;99.38
14242;BME280;7205;50.864;12.766;2023-04-02T06:37:31;97438.56;;;5.06;98.57
14242;BME280;7205;50.864;12.766;2023-04-02T06:40:24;97444.66;;;4.97;98.12
14242;BME280;7205;50.864;12.766;2023-04-02T06:42:55;97450.19;;;4.94;98.29
14242;BME280;7205;50.864;12.766;2023-04-02T06:45:57;97462.59;;;4.92;98.06
14242;BME280;7205;50.864;12.766;2023-04-02T06:48:46;97471.56;;;4.90;98.92
14242;BME280;7205;50.864;12.766;2023-04-02T06:51:17;97478.03;;;4.86;97.72
14242;BME280;7205;50.864;12.766;2023-04-02T06:53:46;97481.94;;;4.82;98.08
14242;BME280;7205;50.864;12.766;2023-04-02T06:56:24;97490.72;;;4.81;97.40
14242;BME280;7205;50.864;12.766;2023-04-02T06:58:57;97505.72;;;4.79;97.59
14242;BME280;7205;50.864;12.766;2023-04-02T07:01:26;97492.94;;;4.76;97.54
14242;BME280;7205;50.864;12.766;2023-04-02T07:03:55;97495.56;;;4.76;97.19
14242;BME280;7205;50.864;12.766;2023-04-02T07:06:30;97515.94;;;4.82;98.23
14242;BME280;7205;50.864;12.766;2023-04-02T07:08:59;97520.56;;;4.88;98.36
14242;BME280;7205;50.864;12.766;2023-04-02T07:11:30;97514.91;;;4.92;98.99
14242;BME280;7205;50.864;12.766;2023-04-02T07:14:00;97518.75;;;4.98;98.05
14242;BME280;7205;50.864;12.766;2023-04-02T07:16:30;97524.13;;;4.96;97.35
14242;BME280;7205;50.864;12.766;2023-04-02T07:18:58;97524.81;;;4.98;97.38
14242;BME280;7205;50.864;12.766;2023-04-02T07:21:27;97538.59;;;5.00;96.62
14242;BME280;7205;50.864;12.766;2023-04-02T07:23:55;97532.06;;;5.04;96.95
14242;BME280;7205;50.864;12.766;2023-04-02T07:26:23;97542.94;;;5.09;96.97
14242;BME280;7205;50.864;12.766;2023-04-02T07:28:53;97548.84;;;5.11;96.20
14242;BME280;7205;50.864;12.766;2023-04-02T07:31:21;97545.41;;;5.11;96.23
14242;BME280;7205;50.864;12.766;2023-04-02T07:33:49;97553.56;;;5.08;95.52
14242;BME280;7205;50.864;12.766;2023-04-02T07:36:18;97555.63;;;5.04;94.37
14242;BME280;7205;50.864;12.766;2023-04-02T07:38:46;97578.78;;;4.99;94.27
14242;BME280;7205;50.864;12.766;2023-04-02T07:41:13;97577.44;;;4.95;94.13
14242;BME280;7205;50.864;12.766;2023-04-02T07:43:40;97578.66;;;4.91;94.28
14242;BME280;7205;50.864;12.766;2023-04-02T07:46:09;97588.28;;;4.91;94.22
14242;BME280;7205;50.864;12.766;2023-04-02T07:48:36;97603.84;;;4.92;94.02
14242;BME280;7205;50.864;12.766;2023-04-02T07:51:14;97590.91;;;4.91;94.33
14242;BME280;7205;50.864;12.766;2023-04-02T07:53:41;97597.66;;;4.93;94.21
14242;BME280;7205;50.864;12.766;2023-04-02T07:56:13;97600.69;;;4.98;94.38
14242;BME280;7205;50.864;12.766;2023-04-02T07:58:40;97610.72;;;5.03;93.69
14242;BME280;7205;50.864;12.766;2023-04-02T08:01:15;97612.34;;;5.04;94.29
14242;BME280;7205;50.864;12.766;2023-04-02T08:03:42;97622.69;;;5.05;93.86
14242;BME280;7205;50.864;12.766;2023-04-02T08:06:09;97632.34;;;5.05;93.35
14242;BME280;7205;50.864;12.766;2023-04-02T08:08:36;97627.13;;;4.95;92.23
14242;BME280;7205;50.864;12.766;2023-04-02T08:11:03;97634.81;;;4.87;92.06
14242;BME280;7205;50.864;12.766;2023-04-02T08:13:30;97644.63;;;4.76;91.75
14242;BME280;7205;50.864;12.766;2023-04-02T08:15:58;97644.34;;;4.69;91.51
14242;BME280;7205;50.864;12.766;2023-04-02T08:18:26;97638.84;;;4.63;91.85
14242;BME280;7205;50.864;12.766;2023-04-02T08:20:53;97651.50;;;4.58;92.69
14242;BME280;7205;50.864;12.766;2023-04-02T08:23:20;97653.03;;;4.60;92.23
14242;BME280;7205;50.864;12.766;2023-04-02T08:25:48;97655.50;;;4.62;93.36
14242;BME280;7205;50.864;12.766;2023-04-02T08:28:15;97657.72;;;4.66;93.02
14242;BME280;7205;50.864;12.766;2023-04-02T08:30:42;97661.97;;;4.67;93.25
14242;BME280;7205;50.864;12.766;2023-04-02T08:33:09;97672.16;;;4.70;93.49
14242;BME280;7205;50.864;12.766;2023-04-02T08:35:38;97672.16;;;4.70;93.27
14242;BME280;7205;50.864;12.766;2023-04-02T08:38:05;97677.81;;;4.75;93.23
14242;BME280;7205;50.864;12.766;2023-04-02T08:40:35;97682.75;;;4.78;92.94
14242;BME280;7205;50.864;12.766;2023-04-02T08:43:20;97693.09;;;4.80;92.76
14242;BME280;7205;50.864;12.766;2023-04-02T08:45:58;97696.09;;;4.85;93.10
14242;BME280;7205;50.864;12.766;2023-04-02T08:48:30;97701.06;;;4.88;93.14
14242;BME280;7205;50.864;12.766;2023-04-02T08:51:00;97699.94;;;4.81;91.97
14242;BME280;7205;50.864;12.766;2023-04-02T08:53:30;97715.38;;;4.74;91.84
14242;BME280;7205;50.864;12.766;2023-04-02T08:56:02;97713.47;;;4.67;91.22
14242;BME280;7205;50.864;12.766;2023-04-02T08:58:38;97708.34;;;4.56;91.65
14242;BME280;7205;50.864;12.766;2023-04-02T09:01:17;97711.50;;;4.59;91.67
14242;BME280;7205;50.864;12.766;2023-04-02T09:03:48;97727.75;;;4.72;93.06
14242;BME280;7205;50.864;12.766;2023-04-02T09:06:18;97736.56;;;4.81;92.56
14242;BME280;7205;50.864;12.766;2023-04-02T09:08:47;97729.41;;;4.92;92.80
14242;BME280;7205;50.864;12.766;2023-04-02T09:11:22;97731.06;;;5.03;92.95
14242;BME280;7205;50.864;12.766;2023-04-02T09:13:53;97727.19;;;5.17;93.03
14242;BME280;7205;50.864;12.766;2023-04-02T09:16:30;97739.59;;;5.34;92.35
14242;BME280;7205;50.864;12.766;2023-04-02T09:18:59;97735.84;;;5.46;91.43
14242;BME280;7205;50.864;12.766;2023-04-02T09:21:34;97737.06;;;5.51;90.45
14242;BME280;7205;50.864;12.766;2023-04-02T09:24:02;97747.69;;;5.59;90.55
14242;BME280;7205;50.864;12.766;2023-04-02T09:26:31;97754.22;;;5.73;90.13
14242;BME280;7205;50.864;12.766;2023-04-02T09:29:03;97761.13;;;5.83;89.34
14242;BME280;7205;50.864;12.766;2023-04-02T09:31:42;97757.56;;;5.84;87.35
14242;BME280;7205;50.864;12.766;2023-04-02T09:34:28;97755.75;;;5.85;86.39
14242;BME280;7205;50.864;12.766;2023-04-02T09:37:06;97757.69;;;5.83;85.35
14242;BME280;7205;50.864;12.766;2023-04-02T09:39:33;97762.91;;;5.83;84.13
14242;BME280;7205;50.864;12.766;2023-04-02T09:42:05;97765.41;;;5.84;83.81
14242;BME280;7205;50.864;12.766;2023-04-02T09:44:32;97766.78;;;5.88;83.30
14242;BME280;7205;50.864;12.766;2023-04-02T09:47:01;97771.97;;;5.98;82.96
14242;BME280;7205;50.864;12.766;2023-04-02T09:49:30;97775.53;;;6.06;82.21
14242;BME280;7205;50.864;12.766;2023-04-02T09:52:17;97788.63;;;6.16;81.39
14242;BME280;7205;50.864;12.766;2023-04-02T09:54:45;97788.88;;;6.22;79.30
14242;BME280;7205;50.864;12.766;2023-04-02T09:57:18;97793.66;;;6.27;78.13
14242;BME280;7205;50.864;12.766;2023-04-02T10:00:07;97804.41;;;6.33;77.37
14242;BME280;7205;50.864;12.766;2023-04-02T10:02:39;97802.59;;;6.34;75.96
14242;BME280;7205;50.864;12.766;2023-04-02T10:05:16;97818.50;;;6.32;74.44
14242;BME280;7205;50.864;12.766;2023-04-02T10:07:46;97809.41;;;6.27;73.52
14242;BME280;7205;50.864;12.766;2023-04-02T10:10:20;97817.84;;;6.21;72.96
14242;BME280;7205;50.864;12.766;2023-04-02T10:12:51;97829.69;;;6.25;73.36
14242;BME280;7205;50.864;12.766;2023-04-02T10:15:26;97827.19;;;6.23;72.55
14242;BME280;7205;50.864;12.766;2023-04-02T10:18:02;97831.91;;;6.20;72.01
14242;BME280;7205;50.864;12.766;2023-04-02T10:20:33;97840.34;;;6.14;71.24
14242;BME280;7205;50.864;12.766;2023-04-02T10:23:05;97845.50;;;6.06;70.63
14242;BME280;7205;50.864;12.766;2023-04-02T10:25:40;97846.03;;;6.00;70.81
14242;BME280;7205;50.864;12.766;2023-04-02T10:28:12;97848.50;;;6.01;70.75
14242;BME280;7205;50.864;12.766;2023-04-02T10:30:50;97855.56;;;6.01;70.54
14242;BME280;7205;50.864;12.766;2023-04-02T10:33:26;97859.72;;;5.94;69.68
14242;BME280;7205;50.864;12.766;2023-04-02T10:36:00;97863.72;;;5.88;69.29
14242;BME280;7205;50.864;12.766;2023-04-02T10:38:41;97865.78;;;5.85;69.46
14242;BME280;7205;50.864;12.766;2023-04-02T10:41:29;97865.38;;;5.89;69.85
14242;BME280;7205;50.864;12.766;2023-04-02T10:44:17;97868.28;;;5.96;69.54
14242;BME280;7205;50.864;12.766;2023-04-02T10:46:54;97871.00;;;6.04;69.63
14242;BME280;7205;50.864;12.766;2023-04-02T10:49:31;97878.44;;;6.08;69.15
14242;BME280;7205;50.864;12.766;2023-04-02T10:52:06;97874.03;;;6.09;68.93
14242;BME280;7205;50.864;12.766;2023-04-02T10:54:41;97894.84;;;6.10;69.03
14242;BME280;7205;50.864;12.766;2023-04-02T10:57:25;97898.06;;;6.04;68.72
14242;BME280;7205;50.864;12.766;2023-04-02T10:59:58;97892.81;;;5.95;68.90
14242;BME280;7205;50.864;12.766;2023-04-02T11:02:34;97911.00;;;5.96;69.18
14242;BME280;7205;50.864;12.766;2023-04-02T11:05:12;97914.19;;;5.90;69.45
14242;BME280;7205;50.864;12.766;2023-04-02T11:07:52;97913.34;;;5.80;69.20
14242;BME280;7205;50.864;12.766;2023-04-02T11:10:20;97918.44;;;5.72;69.67
14242;BME280;7205;50.864;12.766;2023-04-02T11:12:55;97921.34;;;5.69;70.66
14242;BME280;7205;50.864;12.766;2023-04-02T11:15:24;97920.09;;;5.73;71.22
14242;BME280;7205;50.864;12.766;2023-04-02T11:17:52;97926.16;;;5.74;71.51
14242;BME280;7205;50.864;12.766;2023-04-02T11:26:32;97938.34;;;5.84;72.15
14242;BME280;7205;50.864;12.766;2023-04-02T11:29:07;97958.72;;;5.81;71.75
14242;BME280;7205;50.864;12.766;2023-04-02T11:31:37;97956.78;;;5.73;71.16
14242;BME280;7205;50.864;12.766;2023-04-02T11:34:04;97949.19;;;5.61;71.17
14242;BME280;7205;50.864;12.766;2023-04-02T11:36:59;97953.72;;;5.49;71.30
14242;BME280;7205;50.864;12.766;2023-04-02T11:39:47;97957.00;;;5.42;72.10
14242;BME280;7205;50.864;12.766;2023-04-02T11:42:25;97957.00;;;5.42;72.91
14242;BME280;7205;50.864;12.766;2023-04-02T11:44:53;97960.06;;;5.47;73.75
14242;BME280;7205;50.864;12.766;2023-04-02T11:47:21;97970.13;;;5.51;73.31
14242;BME280;7205;50.864;12.766;2023-04-02T11:52:53;97982.53;;;5.49;73.40
14242;BME280;7205;50.864;12.766;2023-04-02T11:55:24;97977.53;;;5.46;72.92
14242;BME280;7205;50.864;12.766;2023-04-02T11:58:21;97974.69;;;5.49;73.58
14242;BME280;7205;50.864;12.766;2023-04-02T12:01:37;97980.75;;;5.59;73.91
14242;BME280;7205;50.864;12.766;2023-04-02T12:04:22;97992.59;;;5.63;73.81
14242;BME280;7205;50.864;12.766;2023-04-02T12:07:05;97991.25;;;5.69;74.10
14242;BME280;7205;50.864;12.766;2023-04-02T12:09:42;98004.19;;;5.70;73.64
14242;BME280;7205;50.864;12.766;2023-04-02T12:12:24;97999.25;;;5.67;73.06
14242;BME280;7205;50.864;12.766;2023-04-02T12:14:54;98003.34;;;5.60;73.21
14242;BME280;7205;50.864;12.766;2023-04-02T12:17:26;98003.91;;;5.54;73.22
14242;BME280;7205;50.864;12.766;2023-04-02T12:19:55;98006.53;;;5.54;73.46
14242;BME280;7205;50.864;12.766;2023-04-02T12:22:24;98013.56;;;5.54;73.81
14242;BME280;7205;50.864;12.766;2023-04-02T12:24:54;98012.56;;;5.55;74.07
14242;BME280;7205;50.864;12.766;2023-04-02T12:27:25;98015.06;;;5.56;73.64
14242;BME280;7205;50.864;12.766;2023-04-02T12:29:55;98012.31;;;5.58;73.55
14242;BME280;7205;50.864;12.766;2023-04-02T12:32:25;98022.38;;;5.62;73.57
14242;BME280;7205;50.864;12.766;2023-04-02T12:34:53;98020.19;;;5.67;73.81
14242;BME280;7205;50.864;12.766;2023-04-02T12:37:24;98021.56;;;5.71;74.02
14242;BME280;7205;50.864;12.766;2023-04-02T12:39:54;98026.66;;;5.73;73.66
14242;BME280;7205;50.864;12.766;2023-04-02T12:42:31;98029.84;;;5.76;73.55
14242;BME280;7205;50.864;12.766;2023-04-02T12:45:00;98034.28;;;5.76;73.05
14242;BME280;7205;50.864;12.766;2023-04-02T12:47:28;98036.91;;;5.76;73.34
14242;BME280;7205;50.864;12.766;2023-04-02T12:49:56;98048.75;;;5.80;73.48
14242;BME280;7205;50.864;12.766;2023-04-02T12:52:26;98045.63;;;5.86;73.14
14242;BME280;7205;50.864;12.766;2023-04-02T12:54:55;98047.56;;;5.93;73.44
14242;BME280;7205;50.864;12.766;2023-04-02T12:57:34;98055.69;;;6.00;73.14
14242;BME280;7205;50.864;12.766;2023-04-02T13:00:30;98051.84;;;6.04;72.90
14242;BME280;7205;50.864;12.766;2023-04-02T13:02:59;98052.41;;;6.07;72.73
14242;BME280;7205;50.864;12.766;2023-04-02T13:05:32;98058.88;;;6.13;72.56
14242;BME280;7205;50.864;12.766;2023-04-02T13:08:00;98059.56;;;6.15;71.87
14242;BME280;7205;50.864;12.766;2023-04-02T13:10:27;98057.38;;;6.10;71.06
14242;BME280;7205;50.864;12.766;2023-04-02T13:12:54;98055.97;;;6.06;70.70
14242;BME280;7205;50.864;12.766;2023-04-02T13:15:23;98069.09;;;6.06;70.69
14242;BME280;7205;50.864;12.766;2023-04-02T13:18:05;98065.09;;;6.12;71.23
14242;BME280;7205;50.864;12.766;2023-04-02T13:20:33;98070.34;;;6.21;71.08
14242;BME280;7205;50.864;12.766;2023-04-02T13:23:21;98073.78;;;6.31;70.79
14242;BME280;7205;50.864;12.766;2023-04-02T13:25:49;98064.53;;;6.37;70.08
14242;BME280;7205;50.864;12.766;2023-04-02T13:28:16;98070.47;;;6.49;70.08
14242;BME280;7205;50.864;12.766;2023-04-02T13:30:43;98063.84;;;6.54;69.66
14242;BME280;7205;50.864;12.766;2023-04-02T13:33:12;98064.25;;;6.59;69.75
14242;BME280;7205;50.864;12.766;2023-04-02T13:35:38;98068.66;;;6.68;69.51
14242;BME280;7205;50.864;12.766;2023-04-02T13:38:05;98070.31;;;6.79;69.16
14242;BME280;7205;50.864;12.766;2023-04-02T13:40:34;98076.22;;;6.90;69.09
14242;BME280;7205;50.864;12.766;2023-04-02T13:43:02;98075.78;;;7.04;68.75
14242;BME280;7205;50.864;12.766;2023-04-02T13:45:31;98071.03;;;7.17;68.29
14242;BME280;7205;50.864;12.766;2023-04-02T13:47:59;98073.75;;;7.25;67.09